Time;durP1;ratioP1;P1;durP2;ratioP2;P2;SDS_P1;SDS_P2;PMS_P1;PMS_P2;Temp;Humidity;BMP_temperature;BMP_pressure;BME280_temperature;BME280_humidity;BME280_pressure;Samples;Min_cycle;Max_cycle;Signal;HPM_P1;HPM_P2
2021/12/08 00:02:10;;;;;;;;;;;;;;;4.88;56.58;98909.84;5020399;28;19922;-80
2021/12/08 00:04:35;;;;;;;;;;;;;;;4.89;57.09;98910.69;5021383;28;19983;-80
2021/12/08 00:07:02;;;;;;;;;;;;;;;4.86;56.67;98898.72;5026170;28;19988;-81
2021/12/08 00:09:35;;;;;;;;;;;;;;;4.77;58.27;98899.66;5020085;28;19932;-81
2021/12/08 00:14:44;;;;;;;;;;;;;;;4.61;59.41;98928.34;5027929;28;19928;-81
2021/12/08 00:17:09;;;;;;;;;;;;;;;4.44;61.17;98936.06;5025817;28;19921;-81
2021/12/08 00:19:34;;;;;;;;;;;;;;;4.33;62.31;98933.69;5033351;28;19929;-80
2021/12/08 00:22:00;;;;;;;;;;;;;;;4.21;62.25;98925.22;5033125;28;19922;-81
2021/12/08 00:24:25;;;;;;;;;;;;;;;4.23;61.85;98928.53;5024318;28;19960;-81
2021/12/08 00:26:51;;;;;;;;;;;;;;;4.11;63.85;98921.06;5031214;28;20020;-80
2021/12/08 00:29:16;;;;;;;;;;;;;;;4.21;62.22;98920.00;5031864;28;20226;-80
2021/12/08 00:31:45;;;;;;;;;;;;;;;4.26;62.80;98916.94;5036518;28;19928;-81
2021/12/08 00:34:11;;;;;;;;;;;;;;;4.33;61.93;98919.78;5020877;28;19928;-80
2021/12/08 00:36:42;;;;;;;;;;;;;;;4.30;61.95;98910.44;5034072;28;19989;-80
2021/12/08 00:39:08;;;;;;;;;;;;;;;4.40;62.26;98926.88;5024645;28;19969;-80
2021/12/08 00:41:33;;;;;;;;;;;;;;;4.40;61.39;98921.63;5030322;28;19924;-81
2021/12/08 00:43:59;;;;;;;;;;;;;;;4.28;62.04;98917.63;5025283;28;20401;-81
2021/12/08 00:46:24;;;;;;;;;;;;;;;4.32;62.32;98931.22;5019220;28;19933;-80
2021/12/08 00:48:50;;;;;;;;;;;;;;;4.17;63.22;98920.44;5027281;28;20365;-80
2021/12/08 00:51:16;;;;;;;;;;;;;;;4.09;64.21;98925.63;5025065;28;19949;-81
2021/12/08 00:53:42;;;;;;;;;;;;;;;3.83;67.42;98936.81;5037997;28;19921;-80
2021/12/08 00:56:07;;;;;;;;;;;;;;;3.82;66.45;98945.63;5012466;28;19945;-79
2021/12/08 00:58:32;;;;;;;;;;;;;;;3.69;67.34;98935.50;5036610;28;20107;-81
2021/12/08 01:00:57;;;;;;;;;;;;;;;3.65;69.00;98928.09;5023223;28;19921;-81
2021/12/08 01:03:23;;;;;;;;;;;;;;;3.56;70.95;98929.84;5026014;28;20294;-81
2021/12/08 01:05:50;;;;;;;;;;;;;;;3.51;69.94;98943.34;5024966;28;19951;-81
2021/12/08 01:08:16;;;;;;;;;;;;;;;3.53;70.34;98940.59;5020051;28;19925;-81
2021/12/08 01:10:42;;;;;;;;;;;;;;;3.60;69.34;98945.06;5022835;28;19974;-81
2021/12/08 01:13:08;;;;;;;;;;;;;;;3.50;70.60;98940.84;5040507;28;19928;-80
2021/12/08 01:15:34;;;;;;;;;;;;;;;3.53;70.51;98951.03;5027978;28;19932;-81
2021/12/08 01:17:59;;;;;;;;;;;;;;;3.55;70.74;98947.31;5017458;28;19918;-81
2021/12/08 01:20:25;;;;;;;;;;;;;;;3.38;71.67;98948.06;5015756;28;19944;-80
2021/12/08 01:22:50;;;;;;;;;;;;;;;3.43;72.05;98951.06;5022396;28;20317;-81
2021/12/08 01:25:15;;;;;;;;;;;;;;;3.44;72.31;98952.72;5024874;28;19954;-81
2021/12/08 01:27:41;;;;;;;;;;;;;;;3.62;71.74;98957.97;5029113;28;20442;-81
2021/12/08 01:30:07;;;;;;;;;;;;;;;3.59;72.10;98953.06;5024052;28;19938;-80
2021/12/08 01:32:34;;;;;;;;;;;;;;;3.56;72.82;98964.63;5014596;28;19929;-81
2021/12/08 01:34:59;;;;;;;;;;;;;;;3.61;72.72;98970.22;5035528;28;19928;-80
2021/12/08 01:37:24;;;;;;;;;;;;;;;3.66;73.16;98971.59;5023209;28;19924;-80
2021/12/08 01:39:50;;;;;;;;;;;;;;;3.63;73.85;98970.09;5011238;28;19921;-80
2021/12/08 01:42:18;;;;;;;;;;;;;;;3.53;74.67;98969.34;5028955;28;20301;-81
2021/12/08 01:47:28;;;;;;;;;;;;;;;3.52;75.38;98976.31;5031633;28;19947;-81
2021/12/08 01:49:54;;;;;;;;;;;;;;;3.49;76.10;98974.00;5026308;28;20374;-81
2021/12/08 01:52:19;;;;;;;;;;;;;;;3.38;77.51;98980.25;5046630;28;20016;-81
2021/12/08 01:54:44;;;;;;;;;;;;;;;3.36;77.89;98976.97;5028404;28;20476;-80
2021/12/08 01:57:10;;;;;;;;;;;;;;;3.31;79.13;98980.94;5022535;28;19922;-80
2021/12/08 01:59:35;;;;;;;;;;;;;;;3.30;78.31;98969.69;5030166;28;19921;-80
2021/12/08 02:02:00;;;;;;;;;;;;;;;3.30;79.18;98964.47;5047370;28;19929;-80
2021/12/08 02:04:26;;;;;;;;;;;;;;;3.18;79.10;98971.66;5022908;28;20485;-80
2021/12/08 02:06:51;;;;;;;;;;;;;;;3.23;79.57;98962.56;5041931;28;19929;-80
2021/12/08 02:09:17;;;;;;;;;;;;;;;3.20;79.86;98958.47;5028171;28;19918;-80
2021/12/08 02:11:51;;;;;;;;;;;;;;;3.20;79.82;98953.25;5027143;28;19921;-80
2021/12/08 02:14:17;;;;;;;;;;;;;;;3.18;81.01;98937.69;5039551;28;19917;-79
2021/12/08 02:16:42;;;;;;;;;;;;;;;3.17;81.01;98943.06;5031574;28;19967;-79
2021/12/08 02:19:07;;;;;;;;;;;;;;;3.16;80.88;98939.63;5033074;28;19921;-79
2021/12/08 02:21:32;;;;;;;;;;;;;;;3.19;81.11;98935.91;5037262;28;20370;-78
2021/12/08 02:23:59;;;;;;;;;;;;;;;3.17;81.51;98915.16;5023933;28;19926;-78
2021/12/08 02:26:25;;;;;;;;;;;;;;;3.15;81.50;98911.88;5031041;28;19921;-79
2021/12/08 02:28:51;;;;;;;;;;;;;;;3.12;82.00;98903.50;5019313;28;19941;-78
2021/12/08 02:31:25;;;;;;;;;;;;;;;3.16;81.50;98908.28;5025690;28;19922;-79
2021/12/08 02:47:43;;;;;;;;;;;;;;;3.40;82.91;98878.19;5022118;28;19933;-78
2021/12/08 02:50:09;;;;;;;;;;;;;;;3.50;81.60;98884.19;5024368;28;20164;-79
2021/12/08 02:52:34;;;;;;;;;;;;;;;3.57;81.63;98873.97;5027600;28;19980;-79
2021/12/08 02:55:03;;;;;;;;;;;;;;;3.60;81.62;98881.53;5031491;28;19928;-78
2021/12/08 02:57:28;;;;;;;;;;;;;;;3.75;80.81;98877.44;5021023;28;20293;-79
2021/12/08 02:59:53;;;;;;;;;;;;;;;3.85;80.15;98872.13;5030789;28;19917;-79
2021/12/08 03:02:18;;;;;;;;;;;;;;;3.83;80.83;98864.41;5026654;28;20004;-79
2021/12/08 03:04:45;;;;;;;;;;;;;;;3.83;80.55;98874.06;5022516;28;19992;-79
2021/12/08 03:07:10;;;;;;;;;;;;;;;3.83;80.36;98863.59;5022736;28;19936;-79
2021/12/08 03:09:35;;;;;;;;;;;;;;;3.88;80.34;98878.84;5037932;28;20365;-79
2021/12/08 03:12:01;;;;;;;;;;;;;;;3.93;80.22;98873.97;5022099;28;20441;-79
2021/12/08 03:14:28;;;;;;;;;;;;;;;3.93;80.34;98879.22;5020330;28;20321;-79
2021/12/08 03:16:55;;;;;;;;;;;;;;;3.96;80.17;98876.31;5022349;28;19921;-79
2021/12/08 03:19:23;;;;;;;;;;;;;;;3.97;80.16;98870.09;5021763;28;20290;-81
2021/12/08 03:21:49;;;;;;;;;;;;;;;3.98;79.83;98876.97;5021092;28;20421;-81
2021/12/08 03:27:04;;;;;;;;;;;;;;;4.00;79.97;98877.63;5026825;28;19932;-81
2021/12/08 03:29:40;;;;;;;;;;;;;;;4.03;80.25;98878.19;5034444;28;19921;-80
2021/12/08 03:32:10;;;;;;;;;;;;;;;4.21;79.42;98874.72;5022324;28;19925;-81
2021/12/08 03:34:38;;;;;;;;;;;;;;;4.25;79.37;98876.88;5042885;28;20004;-81
2021/12/08 03:37:04;;;;;;;;;;;;;;;4.23;79.48;98885.84;5027856;28;20063;-78
2021/12/08 03:39:30;;;;;;;;;;;;;;;4.21;79.66;98883.38;5018234;28;19921;-79
2021/12/08 03:41:55;;;;;;;;;;;;;;;4.21;79.37;98882.56;5019566;28;20342;-79
2021/12/08 03:44:20;;;;;;;;;;;;;;;4.21;79.45;98883.38;5045135;28;19936;-79
2021/12/08 03:46:46;;;;;;;;;;;;;;;4.18;79.77;98885.50;5029101;28;19925;-79
2021/12/08 03:49:14;;;;;;;;;;;;;;;4.22;79.56;98886.84;5030050;28;19944;-78
2021/12/08 03:51:40;;;;;;;;;;;;;;;4.27;79.43;98889.81;5023692;28;19928;-78
2021/12/08 03:54:06;;;;;;;;;;;;;;;4.26;79.38;98885.53;5028770;28;19925;-79
2021/12/08 03:56:31;;;;;;;;;;;;;;;4.26;79.26;98896.00;5032930;28;19921;-78
2021/12/08 03:58:56;;;;;;;;;;;;;;;4.34;79.22;98893.47;5027725;28;19976;-79
2021/12/08 04:01:22;;;;;;;;;;;;;;;4.28;79.05;98886.22;5025862;28;19921;-79
2021/12/08 04:03:50;;;;;;;;;;;;;;;4.36;78.86;98902.00;5019539;28;19921;-79
2021/12/08 04:06:38;;;;;;;;;;;;;;;4.32;79.00;98895.41;5016445;28;19929;-78
2021/12/08 04:09:12;;;;;;;;;;;;;;;4.31;79.29;98912.06;5023178;28;19928;-79
2021/12/08 04:11:38;;;;;;;;;;;;;;;4.31;78.79;98914.69;5017680;28;19921;-78
2021/12/08 04:14:05;;;;;;;;;;;;;;;4.28;80.00;98916.78;5029392;28;19987;-78
2021/12/08 04:16:33;;;;;;;;;;;;;;;4.36;78.87;98917.69;5020629;28;20405;-78
2021/12/08 04:18:59;;;;;;;;;;;;;;;4.32;79.26;98918.97;5024783;28;19922;-79
2021/12/08 04:21:26;;;;;;;;;;;;;;;4.32;78.90;98915.53;5024136;28;19940;-78
2021/12/08 04:23:52;;;;;;;;;;;;;;;4.31;79.26;98904.22;5022715;28;19944;-79
2021/12/08 04:26:20;;;;;;;;;;;;;;;4.31;79.28;98903.41;5044513;28;19930;-79
2021/12/08 04:28:46;;;;;;;;;;;;;;;4.32;79.54;98897.22;5026838;28;19932;-79
2021/12/08 04:31:16;;;;;;;;;;;;;;;4.25;79.73;98899.59;5020128;28;19925;-78
2021/12/08 04:33:41;;;;;;;;;;;;;;;4.31;79.40;98908.63;5014132;28;20371;-79
2021/12/08 04:36:10;;;;;;;;;;;;;;;4.35;79.33;98891.66;5032447;28;19921;-79
2021/12/08 04:38:40;;;;;;;;;;;;;;;4.33;79.97;98881.34;5023837;28;19936;-79
2021/12/08 04:41:09;;;;;;;;;;;;;;;4.26;80.62;98899.44;5025055;28;20012;-80
2021/12/08 04:43:47;;;;;;;;;;;;;;;4.34;80.04;98892.63;5034815;28;20444;-79
2021/12/08 04:46:23;;;;;;;;;;;;;;;4.32;79.79;98889.38;5019016;28;19929;-79
2021/12/08 05:09:34;;;;;;;;;;;;;;;4.36;81.72;98896.75;5033771;28;20098;-79
2021/12/08 05:12:09;;;;;;;;;;;;;;;4.41;81.14;98896.28;5014464;28;19944;-79
2021/12/08 05:14:38;;;;;;;;;;;;;;;4.44;81.07;98898.59;5016431;28;20427;-79
2021/12/08 05:17:06;;;;;;;;;;;;;;;4.43;81.43;98895.19;5027520;28;20063;-79
2021/12/08 05:19:32;;;;;;;;;;;;;;;4.47;81.13;98899.09;5036291;28;19944;-79
2021/12/08 05:22:00;;;;;;;;;;;;;;;4.50;81.14;98902.41;5014894;28;19922;-78
2021/12/08 05:24:28;;;;;;;;;;;;;;;4.48;81.85;98910.41;5015721;28;19949;-79
2021/12/08 05:26:59;;;;;;;;;;;;;;;4.44;82.86;98904.66;5026687;28;19925;-80
2021/12/08 05:29:27;;;;;;;;;;;;;;;4.33;83.97;98909.31;5026429;28;19925;-79
2021/12/08 05:31:55;;;;;;;;;;;;;;;4.49;82.43;98911.25;5042536;28;20147;-80
2021/12/08 05:34:20;;;;;;;;;;;;;;;4.46;82.45;98902.72;5027132;28;19960;-79
2021/12/08 05:36:45;;;;;;;;;;;;;;;4.52;82.39;98892.59;5023188;28;19921;-80
2021/12/08 05:39:13;;;;;;;;;;;;;;;4.57;81.96;98895.56;5025580;28;20397;-80
2021/12/08 05:41:40;;;;;;;;;;;;;;;4.65;81.53;98879.94;5029434;28;19948;-79
2021/12/08 05:44:05;;;;;;;;;;;;;;;4.70;81.37;98892.56;5045039;28;20364;-80
2021/12/08 05:46:32;;;;;;;;;;;;;;;4.70;81.46;98892.56;5027338;28;19936;-80
2021/12/08 05:48:57;;;;;;;;;;;;;;;4.64;81.67;98909.69;5030136;28;19921;-80
2021/12/08 05:51:24;;;;;;;;;;;;;;;4.67;81.84;98907.59;5039193;28;19944;-79
2021/12/08 05:53:52;;;;;;;;;;;;;;;4.81;82.23;98914.06;5030373;28;19925;-79
2021/12/08 05:56:17;;;;;;;;;;;;;;;4.80;82.14;98916.84;5023041;28;19961;-79
2021/12/08 05:58:45;;;;;;;;;;;;;;;4.81;81.72;98916.66;5020171;28;19960;-79
2021/12/08 06:01:29;;;;;;;;;;;;;;;4.72;81.92;98912.38;5023441;28;19921;-79
2021/12/08 06:03:55;;;;;;;;;;;;;;;4.68;83.32;98897.94;5018435;28;20076;-79
2021/12/08 06:06:22;;;;;;;;;;;;;;;4.83;82.77;98916.53;5030923;28;20095;-79
2021/12/08 06:08:47;;;;;;;;;;;;;;;4.94;83.17;98902.38;5018770;28;19948;-78
2021/12/08 06:11:13;;;;;;;;;;;;;;;5.00;83.14;98889.44;5040062;28;20028;-79
2021/12/08 06:13:39;;;;;;;;;;;;;;;5.08;83.13;98899.97;5053956;28;19921;-80
2021/12/08 06:16:06;;;;;;;;;;;;;;;5.16;83.15;98898.38;5027495;28;19952;-80
2021/12/08 06:18:38;;;;;;;;;;;;;;;5.23;83.41;98902.00;5022779;28;19921;-79
2021/12/08 06:21:04;;;;;;;;;;;;;;;5.18;84.16;98897.22;5025346;28;19921;-79
2021/12/08 06:23:32;;;;;;;;;;;;;;;5.20;83.74;98900.53;5028651;28;19921;-80
2021/12/08 06:25:57;;;;;;;;;;;;;;;5.20;83.70;98900.53;5025078;28;19933;-79
2021/12/08 06:28:22;;;;;;;;;;;;;;;5.24;83.34;98914.97;5017867;28;19922;-82
2021/12/08 06:30:49;;;;;;;;;;;;;;;5.26;83.45;98931.31;5026480;28;19980;-83
2021/12/08 06:33:15;;;;;;;;;;;;;;;5.28;83.43;98926.75;5022215;28;19977;-82
2021/12/08 06:35:46;;;;;;;;;;;;;;;5.22;84.39;98937.88;5026892;28;19925;-81
2021/12/08 06:38:12;;;;;;;;;;;;;;;5.30;83.47;98945.75;5021789;28;20180;-82
2021/12/08 06:40:37;;;;;;;;;;;;;;;5.35;83.73;98950.53;5038671;28;19925;-82
2021/12/08 06:43:06;;;;;;;;;;;;;;;5.36;83.61;98941.69;5019321;28;19924;-83
2021/12/08 06:45:33;;;;;;;;;;;;;;;5.37;83.50;98927.63;5016872;28;20382;-82
2021/12/08 06:48:00;;;;;;;;;;;;;;;5.30;83.82;98906.44;5029630;28;19926;-82
2021/12/08 06:50:28;;;;;;;;;;;;;;;5.24;83.90;98893.16;5028175;28;19929;-82
2021/12/08 06:52:54;;;;;;;;;;;;;;;5.24;83.45;98907.09;5015156;28;20393;-81
2021/12/08 06:55:21;;;;;;;;;;;;;;;5.22;83.62;98900.34;5016572;28;19922;-82
2021/12/08 06:57:56;;;;;;;;;;;;;;;5.19;84.02;98887.56;5027443;28;20007;-82
2021/12/08 07:00:48;;;;;;;;;;;;;;;5.14;84.23;98895.09;5025372;28;19925;-82
2021/12/08 07:08:37;;;;;;;;;;;;;;;5.19;84.21;98914.59;5023838;28;19928;-81
2021/12/08 07:11:03;;;;;;;;;;;;;;;5.16;84.08;98930.63;5020978;28;20377;-80
2021/12/08 07:13:30;;;;;;;;;;;;;;;5.14;84.33;98937.00;5020468;28;19921;-81
2021/12/08 07:16:05;;;;;;;;;;;;;;;5.09;84.98;98956.63;5019334;28;19921;-82
2021/12/08 07:18:38;;;;;;;;;;;;;;;5.14;84.54;98961.41;5031403;28;19945;-81
2021/12/08 07:21:04;;;;;;;;;;;;;;;5.15;84.35;98963.06;5021198;28;19921;-83
2021/12/08 07:23:36;;;;;;;;;;;;;;;5.12;85.05;98955.50;5020743;28;19922;-81
2021/12/08 07:26:03;;;;;;;;;;;;;;;5.06;85.04;98951.69;5025719;28;19964;-82
2021/12/08 07:28:28;;;;;;;;;;;;;;;5.05;85.53;98946.59;5025378;28;19987;-81
2021/12/08 07:30:56;;;;;;;;;;;;;;;5.08;85.39;98964.66;5020191;28;19922;-82
2021/12/08 07:33:21;;;;;;;;;;;;;;;5.18;84.91;98964.53;5016868;28;19925;-82
2021/12/08 07:35:54;;;;;;;;;;;;;;;5.11;85.68;98949.44;5024200;28;20001;-82
2021/12/08 07:38:21;;;;;;;;;;;;;;;5.15;85.03;98952.59;5015299;28;19928;-81
2021/12/08 07:40:53;;;;;;;;;;;;;;;5.11;85.86;98951.25;5015668;28;19921;-83
2021/12/08 07:43:21;;;;;;;;;;;;;;;5.09;86.37;98959.25;5032334;28;19921;-79
2021/12/08 07:45:48;;;;;;;;;;;;;;;5.13;85.61;98943.22;5026197;28;19925;-79
2021/12/08 07:48:16;;;;;;;;;;;;;;;5.11;86.14;98935.53;5023174;28;19921;-79
2021/12/08 07:50:47;;;;;;;;;;;;;;;5.16;85.75;98922.78;5014370;28;19976;-79
2021/12/08 07:53:14;;;;;;;;;;;;;;;5.20;85.62;98912.81;5014495;28;19929;-79
2021/12/08 07:55:42;;;;;;;;;;;;;;;5.26;85.68;98915.59;5012040;28;20306;-79
2021/12/08 07:58:08;;;;;;;;;;;;;;;5.35;85.64;98918.28;4998158;28;20011;-79
2021/12/08 08:00:33;;;;;;;;;;;;;;;5.35;85.63;98923.50;5006731;28;19937;-78
2021/12/08 08:02:58;;;;;;;;;;;;;;;5.37;86.08;98929.44;5003818;28;20052;-79
2021/12/08 08:05:28;;;;;;;;;;;;;;;5.44;85.60;98926.00;5025401;28;20540;-78
2021/12/08 08:07:53;;;;;;;;;;;;;;;5.47;85.59;98917.81;5019020;28;20008;-79
2021/12/08 08:10:19;;;;;;;;;;;;;;;5.48;85.68;98923.88;5013477;28;20417;-79
2021/12/08 08:12:46;;;;;;;;;;;;;;;5.48;86.30;98923.88;5019255;28;19922;-80
2021/12/08 08:15:15;;;;;;;;;;;;;;;5.53;85.78;98925.06;5012149;28;19925;-79
2021/12/08 08:17:44;;;;;;;;;;;;;;;5.58;85.84;98927.22;5023314;28;20378;-79
2021/12/08 08:20:19;;;;;;;;;;;;;;;5.63;85.66;98937.22;5007983;28;19921;-80
2021/12/08 08:22:44;;;;;;;;;;;;;;;5.63;85.76;98926.72;5023296;28;19925;-79
2021/12/08 08:25:12;;;;;;;;;;;;;;;5.67;85.34;98921.00;5017061;28;19921;-79
2021/12/08 08:27:37;;;;;;;;;;;;;;;5.73;85.20;98922.16;5010241;28;20360;-80
2021/12/08 08:30:06;;;;;;;;;;;;;;;5.77;85.23;98914.78;5017861;28;19917;-79
2021/12/08 08:32:35;;;;;;;;;;;;;;;5.83;84.98;98927.25;5010171;28;19929;-79
2021/12/08 08:35:08;;;;;;;;;;;;;;;5.93;84.35;98938.44;5023565;28;19984;-80
2021/12/08 08:37:34;;;;;;;;;;;;;;;5.93;84.38;98941.03;5015209;28;19929;-80
2021/12/08 08:40:03;;;;;;;;;;;;;;;5.90;84.61;98946.63;5016375;28;19929;-80
2021/12/08 08:42:31;;;;;;;;;;;;;;;5.97;84.06;98941.59;5036272;28;19928;-79
2021/12/08 08:44:59;;;;;;;;;;;;;;;6.04;84.02;98953.91;5011295;28;20409;-80
2021/12/08 08:47:30;;;;;;;;;;;;;;;6.02;83.49;98944.56;5012744;28;19925;-80
2021/12/08 08:49:56;;;;;;;;;;;;;;;6.08;83.22;98933.41;5013616;28;19937;-80
2021/12/08 08:52:26;;;;;;;;;;;;;;;6.12;82.86;98950.47;5015594;28;19929;-80
2021/12/08 08:54:53;;;;;;;;;;;;;;;6.09;83.19;98946.34;5018890;28;19968;-80
2021/12/08 08:57:44;;;;;;;;;;;;;;;6.15;83.12;98937.84;5010569;28;19945;-79
2021/12/08 09:00:30;;;;;;;;;;;;;;;6.15;83.17;98950.16;5009278;28;19922;-80
2021/12/08 09:02:56;;;;;;;;;;;;;;;6.09;83.03;98948.97;5009229;28;20353;-80
2021/12/08 09:05:29;;;;;;;;;;;;;;;6.18;83.42;98956.88;5012661;28;19922;-79
2021/12/08 09:07:56;;;;;;;;;;;;;;;6.15;83.24;98952.78;5011107;28;19952;-81
2021/12/08 09:10:23;;;;;;;;;;;;;;;6.22;83.37;98969.53;5020667;28;19932;-80
2021/12/08 09:12:58;;;;;;;;;;;;;;;6.25;83.33;98965.75;5012529;28;19922;-80
2021/12/08 09:15:26;;;;;;;;;;;;;;;6.30;82.77;98963.47;5034679;28;19921;-80
2021/12/08 09:18:04;;;;;;;;;;;;;;;6.32;83.12;98945.75;5012536;28;19961;-80
2021/12/08 09:20:36;;;;;;;;;;;;;;;6.35;82.93;98940.16;5022560;28;19922;-83
2021/12/08 09:23:21;;;;;;;;;;;;;;;6.34;82.92;98938.50;5015890;28;19913;-82
2021/12/08 09:25:49;;;;;;;;;;;;;;;6.25;83.12;98958.69;5014522;28;20378;-82
2021/12/08 09:28:17;;;;;;;;;;;;;;;6.24;83.32;98964.91;5003351;28;20318;-82
2021/12/08 09:30:45;;;;;;;;;;;;;;;6.31;83.15;98970.34;5007761;28;20433;-83
2021/12/08 09:33:13;;;;;;;;;;;;;;;6.41;82.77;98983.31;5014853;28;19937;-82
2021/12/08 09:35:44;;;;;;;;;;;;;;;6.35;83.10;98987.41;5006495;28;19924;-81
2021/12/08 09:38:15;;;;;;;;;;;;;;;6.40;83.24;98994.81;5017867;28;19950;-82
2021/12/08 09:40:44;;;;;;;;;;;;;;;6.48;82.60;98992.16;5010196;28;19974;-83
2021/12/08 09:43:16;;;;;;;;;;;;;;;6.44;82.33;98994.31;5009247;28;20286;-83
2021/12/08 09:45:44;;;;;;;;;;;;;;;6.44;82.14;99001.38;5012674;28;19930;-82
2021/12/08 09:48:10;;;;;;;;;;;;;;;6.42;82.14;99001.53;5010065;28;19932;-82
2021/12/08 09:50:36;;;;;;;;;;;;;;;6.37;82.00;99002.00;5017597;28;20294;-83
2021/12/08 09:53:01;;;;;;;;;;;;;;;6.31;82.29;99001.84;5020355;28;19925;-83
2021/12/08 09:55:26;;;;;;;;;;;;;;;6.35;81.97;98998.72;5022754;28;20367;-84
2021/12/08 09:57:52;;;;;;;;;;;;;;;6.30;82.60;99002.84;5011411;28;20378;-83
2021/12/08 10:00:23;;;;;;;;;;;;;;;6.34;82.15;99006.75;5018753;28;20386;-83
2021/12/08 10:02:48;;;;;;;;;;;;;;;6.28;82.19;99007.41;5021506;28;20404;-82
2021/12/08 10:05:15;;;;;;;;;;;;;;;6.34;82.25;99006.75;5009614;28;19921;-82
2021/12/08 10:07:40;;;;;;;;;;;;;;;6.33;82.15;99003.31;5023327;28;19928;-83
2021/12/08 10:10:07;;;;;;;;;;;;;;;6.31;81.84;98993.97;5012846;28;19926;-83
2021/12/08 10:12:34;;;;;;;;;;;;;;;6.30;82.20;98992.34;5015019;28;19922;-81
2021/12/08 10:15:00;;;;;;;;;;;;;;;6.37;81.91;99001.19;5024062;28;19947;-81
2021/12/08 10:17:25;;;;;;;;;;;;;;;6.31;82.10;98991.34;5029472;28;19921;-81
2021/12/08 10:20:06;;;;;;;;;;;;;;;6.35;81.47;98990.84;5020900;28;19936;-82
2021/12/08 10:22:32;;;;;;;;;;;;;;;6.32;81.83;98990.38;5017388;28;19917;-79
2021/12/08 10:25:24;;;;;;;;;;;;;;;6.32;81.92;98982.50;5018855;28;20389;-81
2021/12/08 10:28:10;;;;;;;;;;;;;;;6.30;81.92;98987.91;5013626;28;19965;-81
2021/12/08 10:30:40;;;;;;;;;;;;;;;6.28;81.90;98981.97;5021991;28;20008;-81
2021/12/08 10:33:11;;;;;;;;;;;;;;;6.25;82.09;98986.75;5014218;28;19928;-81
2021/12/08 10:35:44;;;;;;;;;;;;;;;6.22;82.57;98980.03;5023379;28;19925;-83
2021/12/08 10:38:10;;;;;;;;;;;;;;;6.22;82.61;98985.28;5015816;28;19964;-82
2021/12/08 10:40:35;;;;;;;;;;;;;;;6.17;82.98;98977.03;5020348;28;19941;-84
2021/12/08 10:43:12;;;;;;;;;;;;;;;6.20;82.78;98983.75;5014566;28;19926;-81
2021/12/08 10:45:37;;;;;;;;;;;;;;;6.19;82.88;98982.94;5031972;28;19931;-83
2021/12/08 10:48:04;;;;;;;;;;;;;;;6.10;83.50;98986.53;5008080;28;19922;-81
2021/12/08 10:56:10;;;;;;;;;;;;;;;6.01;83.39;98967.34;5016125;28;19937;-82
2021/12/08 10:58:39;;;;;;;;;;;;;;;6.06;83.51;98967.69;5014431;28;19989;-83
2021/12/08 11:01:11;;;;;;;;;;;;;;;6.11;83.48;98962.78;5023415;28;19999;-82
2021/12/08 11:03:38;;;;;;;;;;;;;;;6.14;83.60;98957.19;5019722;28;20370;-82
2021/12/08 11:06:04;;;;;;;;;;;;;;;6.23;83.29;98960.66;5020833;28;19980;-83
2021/12/08 11:08:32;;;;;;;;;;;;;;;6.30;83.07;98960.84;5010089;28;19925;-83
2021/12/08 11:10:58;;;;;;;;;;;;;;;6.30;83.28;98958.22;5015407;28;19926;-82
2021/12/08 11:13:24;;;;;;;;;;;;;;;6.40;83.05;98960.66;5014563;28;20222;-84
2021/12/08 11:15:57;;;;;;;;;;;;;;;6.43;82.60;98971.66;5038443;28;20137;-82
2021/12/08 11:18:23;;;;;;;;;;;;;;;6.41;82.79;98972.81;5011441;28;19929;-82
2021/12/08 11:20:48;;;;;;;;;;;;;;;6.41;82.52;98971.00;5015376;28;20443;-83
2021/12/08 11:23:17;;;;;;;;;;;;;;;6.45;82.27;98968.88;5013648;28;20040;-82
2021/12/08 11:25:45;;;;;;;;;;;;;;;6.36;82.89;98968.88;5020349;28;20011;-82
2021/12/08 11:28:17;;;;;;;;;;;;;;;6.39;82.53;98965.09;5017367;28;19921;-81
2021/12/08 11:30:42;;;;;;;;;;;;;;;6.38;82.69;98961.63;5009283;28;20453;-81
2021/12/08 11:33:17;;;;;;;;;;;;;;;6.38;82.80;98960.81;5016314;28;19921;-81
2021/12/08 11:35:43;;;;;;;;;;;;;;;6.26;83.36;98959.50;5018402;28;19921;-82
2021/12/08 11:38:08;;;;;;;;;;;;;;;6.37;83.00;98951.31;5014374;28;19930;-83
2021/12/08 11:40:34;;;;;;;;;;;;;;;6.42;82.90;98959.53;5027262;28;19969;-83
2021/12/08 11:42:59;;;;;;;;;;;;;;;6.41;82.92;98950.00;5013460;28;20016;-82
2021/12/08 11:45:25;;;;;;;;;;;;;;;6.46;82.89;98952.97;5019352;28;19972;-82
2021/12/08 11:47:50;;;;;;;;;;;;;;;6.44;83.39;98946.25;5017230;28;19921;-83
2021/12/08 11:50:16;;;;;;;;;;;;;;;6.51;83.21;98948.03;5009865;28;20013;-83
2021/12/08 11:52:41;;;;;;;;;;;;;;;6.55;83.07;98943.25;5002002;28;19929;-82
2021/12/08 11:55:17;;;;;;;;;;;;;;;6.58;82.90;98951.66;5010082;28;19976;-84
2021/12/08 11:57:46;;;;;;;;;;;;;;;6.67;82.61;98952.44;5034445;28;19922;-83
2021/12/08 12:00:21;;;;;;;;;;;;;;;6.58;82.60;98949.03;5026630;28;19917;-82
2021/12/08 12:02:56;;;;;;;;;;;;;;;6.62;82.62;98951.31;5027536;28;19921;-84
2021/12/08 12:05:26;;;;;;;;;;;;;;;6.64;82.86;98951.97;5011994;28;19922;-83
2021/12/08 12:07:51;;;;;;;;;;;;;;;6.67;83.08;98946.38;5019419;28;19922;-83
2021/12/08 12:10:19;;;;;;;;;;;;;;;6.73;82.75;98946.53;5026599;28;19981;-84
2021/12/08 12:12:45;;;;;;;;;;;;;;;6.69;82.37;98954.91;5013079;28;20301;-82
2021/12/08 12:15:12;;;;;;;;;;;;;;;6.69;82.54;98953.09;5016560;28;19929;-83
2021/12/08 12:17:38;;;;;;;;;;;;;;;6.69;82.47;98939.97;5012682;28;20222;-82
2021/12/08 12:20:06;;;;;;;;;;;;;;;6.64;82.27;98941.47;5012193;28;20292;-83
2021/12/08 12:22:50;;;;;;;;;;;;;;;6.58;83.03;98938.53;5005524;28;19956;-83
2021/12/08 12:25:42;;;;;;;;;;;;;;;6.54;83.19;98947.69;5010953;28;19930;-82
2021/12/08 12:28:26;;;;;;;;;;;;;;;6.58;83.08;98950.84;5008480;28;20389;-83
2021/12/08 12:31:00;;;;;;;;;;;;;;;6.58;83.02;98949.03;5012459;28;20009;-82
2021/12/08 12:33:25;;;;;;;;;;;;;;;6.59;83.05;98947.22;5015364;28;19989;-83
2021/12/08 12:35:55;;;;;;;;;;;;;;;6.55;83.41;98938.00;5014991;28;19953;-83
2021/12/08 12:38:34;;;;;;;;;;;;;;;6.54;83.32;98929.31;5017174;28;19917;-82
2021/12/08 12:41:00;;;;;;;;;;;;;;;6.55;83.22;98932.75;5004847;28;19921;-85
2021/12/08 12:43:27;;;;;;;;;;;;;;;6.49;83.00;98934.25;4999768;28;19925;-81
2021/12/08 12:46:03;;;;;;;;;;;;;;;6.51;83.02;98920.97;5002750;28;19925;-82
2021/12/08 12:48:30;;;;;;;;;;;;;;;6.49;83.15;98921.13;5001906;28;19929;-82
2021/12/08 12:50:58;;;;;;;;;;;;;;;6.49;83.11;98925.56;5008442;28;19936;-83
2021/12/08 12:53:41;;;;;;;;;;;;;;;6.51;83.09;98921.78;5001668;28;19922;-82
2021/12/08 12:56:10;;;;;;;;;;;;;;;6.41;83.76;98920.28;5001850;28;19929;-83
2021/12/08 12:58:49;;;;;;;;;;;;;;;6.43;83.66;98918.31;4996303;28;20496;-83
2021/12/08 13:01:16;;;;;;;;;;;;;;;6.36;84.34;98923.41;5006923;28;19948;-84
2021/12/08 13:03:47;;;;;;;;;;;;;;;6.44;83.69;98919.97;5005047;28;19928;-82
2021/12/08 13:06:14;;;;;;;;;;;;;;;6.41;83.78;98915.84;5019299;28;19953;-83
2021/12/08 13:08:42;;;;;;;;;;;;;;;6.46;83.62;98925.88;5013827;28;20602;-81
2021/12/08 13:11:27;;;;;;;;;;;;;;;6.46;83.41;98924.09;5012845;28;19922;-83
2021/12/08 13:13:54;;;;;;;;;;;;;;;6.39;83.93;98928.34;5012884;28;19917;-82
2021/12/08 13:16:24;;;;;;;;;;;;;;;6.39;83.66;98917.84;5012503;28;20008;-82
2021/12/08 13:18:57;;;;;;;;;;;;;;;6.40;83.68;98922.09;5025302;28;19918;-82
2021/12/08 13:21:41;;;;;;;;;;;;;;;6.40;83.78;98922.09;5013672;28;19922;-81
2021/12/08 13:24:26;;;;;;;;;;;;;;;6.38;83.62;98909.13;5011157;28;19921;-83
2021/12/08 13:26:58;;;;;;;;;;;;;;;6.40;83.72;98914.22;5012643;28;19941;-81
2021/12/08 13:29:24;;;;;;;;;;;;;;;6.37;83.93;98904.06;5008530;28;19928;-81
2021/12/08 13:31:59;;;;;;;;;;;;;;;6.29;84.43;98904.91;5017634;28;19949;-82
2021/12/08 13:34:24;;;;;;;;;;;;;;;6.34;84.08;98899.13;5011029;28;19931;-81
2021/12/08 13:36:50;;;;;;;;;;;;;;;6.33;84.13;98902.75;5012148;28;20000;-81
2021/12/08 13:39:25;;;;;;;;;;;;;;;6.30;84.14;98905.72;5019992;28;19918;-81
2021/12/08 13:42:11;;;;;;;;;;;;;;;6.31;84.04;98896.84;5010356;28;19918;-83
2021/12/08 13:44:37;;;;;;;;;;;;;;;6.31;84.35;98900.28;5035276;28;20461;-82
2021/12/08 13:47:05;;;;;;;;;;;;;;;6.33;84.10;98889.63;5011927;28;19937;-81
2021/12/08 13:49:34;;;;;;;;;;;;;;;6.28;84.53;98897.97;5012729;28;19922;-83
2021/12/08 13:52:15;;;;;;;;;;;;;;;6.30;84.54;98895.22;5019517;28;20316;-82
2021/12/08 13:54:50;;;;;;;;;;;;;;;6.35;83.94;98890.28;5023804;28;20281;-82
2021/12/08 13:57:34;;;;;;;;;;;;;;;6.38;84.10;98889.94;5016006;28;19926;-82
2021/12/08 14:00:18;;;;;;;;;;;;;;;6.38;83.87;98889.94;5010734;28;19928;-82